Time;durP1;ratioP1;P1;durP2;ratioP2;P2;SDS_P1;SDS_P2;PMS_P1;PMS_P2;Temp;Humidity;BMP_temperature;BMP_pressure;BME280_temperature;BME280_humidity;BME280_pressure;Samples;Min_cycle;Max_cycle;Signal;HPM_P1;HPM_P2
2023/07/30 00:25:37;;;;;;;3.65;1.77;;;;;;;;;;4812821;29;20187;-77
2023/07/30 00:28:58;;;;;;;9.82;1.92;;;;;;;;;;4839041;29;20080;-77
2023/07/30 00:41:53;;;;;;;7.88;1.80;;;;;;;;;;4804946;29;20041;-77
2023/07/30 00:48:01;;;;;;;6.07;1.88;;;;;;;;;;4788441;29;20086;-78
2023/07/30 00:50:37;;;;;;;6.72;1.77;;;;;;;;;;4759867;29;20539;-77
2023/07/30 01:00:11;;;;;;;9.70;1.98;;;;;;;;;;4861254;29;20142;-77
2023/07/30 01:10:23;;;;;;;;;;;;;;;;;;;;;
2023/07/30 01:17:11;;;;;;;7.82;1.77;;;;;;;;;;4916608;29;20125;-77
2023/07/30 01:24:28;;;;;;;5.82;1.88;;;;;;;;;;4846929;29;20191;-78
2023/07/30 01:30:30;;;;;;;7.50;1.70;;;;;;;;;;4773286;29;20103;-77
2023/07/30 02:13:52;;;;;;;5.97;1.35;;;;;;;;;;4618132;30;20062;-78
2023/07/30 02:16:28;;;;;;;4.30;1.45;;;;;;;;;;3878399;30;10655042;-78
2023/07/30 02:19:15;;;;;;;6.03;1.50;;;;;;;;;;4683764;30;20056;-78
2023/07/30 02:25:56;;;;;;;;;;;;;;;;;;;;;
2023/07/30 02:45:21;;;;;;;7.88;2.05;;;;;;;;;;4790750;29;20169;-77
2023/07/30 02:58:30;;;;;;;10.07;1.70;;;;;;;;;;4843426;29;20631;-77
2023/07/30 03:12:04;;;;;;;;;;;;;;;;;;;;;
2023/07/30 03:18:39;;;;;;;8.07;1.85;;;;;;;;;;4827947;29;20042;-77
2023/07/30 03:35:42;;;;;;;;;;;;;;;;;;;;;
2023/07/30 03:42:01;;;;;;;;;;;;;;;;;;;;;
2023/07/30 03:48:15;;;;;;;7.78;1.80;;;;;;;;;;4788124;29;20240;-81
2023/07/30 03:51:34;;;;;;;11.18;2.10;;;;;;;;;;4828125;29;20149;-81
2023/07/30 04:19:08;;;;;;;9.98;1.85;;;;;;;;;;4792598;29;20091;-77
2023/07/30 04:21:34;;;;;;;10.48;1.92;;;;;;;;;;4878900;29;20040;-77
2023/07/30 04:24:11;;;;;;;9.02;1.73;;;;;;;;;;4912819;29;20470;-77
2023/07/30 04:30:40;;;;;;;6.55;2.00;;;;;;;;;;4944452;29;20083;-77
2023/07/30 05:01:14;;;;;;;6.90;1.80;;;;;;;;;;4853745;29;20053;-77
2023/07/30 05:28:35;;;;;;;;;;;;;;;;;;;;;
2023/07/30 05:32:06;;;;;;;9.50;2.25;;;;;;;;;;4842919;29;20404;-77
2023/07/30 05:48:59;;;;;;;;;;;;;;;;;;;;;
2023/07/30 05:59:06;;;;;;;;;;;;;;;;;;;;;
2023/07/30 06:11:57;;;;;;;8.45;2.00;;;;;;;;;;4853613;29;20094;-77
2023/07/30 06:14:43;;;;;;;11.18;2.00;;;;;;;;;;4818329;29;20054;-77
2023/07/30 06:30:50;;;;;;;8.68;2.13;;;;;;;;;;4839863;29;20583;-77
2023/07/30 06:36:47;;;;;;;9.55;2.15;;;;;;;;;;4926074;28;20047;-77
2023/07/30 06:39:18;;;;;;;9.57;2.27;;;;;;;;;;4948331;28;20038;-77
2023/07/30 06:41:44;;;;;;;11.20;2.22;;;;;;;;;;5011252;28;20049;-77
2023/07/30 06:44:35;;;;;;;10.55;2.28;;;;;;;;;;5001272;28;20030;-77
2023/07/30 06:47:07;;;;;;;10.57;2.40;;;;;;;;;;4994082;28;20042;-77
2023/07/30 06:49:48;;;;;;;7.65;2.25;;;;;;;;;;5010188;28;20460;-77
2023/07/30 06:52:22;;;;;;;10.43;1.80;;;;;;;;;;4989096;28;20827;-80
2023/07/30 06:54:48;;;;;;;8.80;1.90;;;;;;;;;;5012433;28;20606;-82
2023/07/30 06:57:18;;;;;;;11.27;2.42;;;;;;;;;;5000410;28;20189;-82
2023/07/30 07:03:11;;;;;;;6.05;1.50;;;;;;;;;;4961139;28;20057;-78
2023/07/30 07:06:05;;;;;;;7.22;2.05;;;;;;;;;;4999557;28;20511;-77
2023/07/30 07:08:34;;;;;;;6.88;1.65;;;;;;;;;;4976454;28;20038;-78
2023/07/30 07:11:05;;;;;;;11.43;2.33;;;;;;;;;;5007444;28;20068;-78
2023/07/30 07:13:57;;;;;;;15.00;2.40;;;;;;;;;;5004858;28;20121;-78
2023/07/30 07:16:23;;;;;;;12.10;2.00;;;;;;;;;;4985073;28;20403;-78
2023/07/30 07:19:08;;;;;;;;;;;;;;;;;;;;;
2023/07/30 07:22:08;;;;;;;8.75;2.10;;;;;;;;;;5002234;28;20033;-77
2023/07/30 07:24:32;;;;;;;9.18;1.95;;;;;;;;;;5012255;28;20037;-77
2023/07/30 07:30:00;;;;;;;12.18;2.00;;;;;;;;;;4960793;28;20035;-77
2023/07/30 07:32:40;;;;;;;;;;;;;;;;;;;;;
2023/07/30 07:35:53;;;;;;;11.02;1.70;;;;;;;;;;5007695;28;20068;-78
2023/07/30 07:46:09;;;;;;;;;;;;;;;;;;;;;
2023/07/30 08:02:38;;;;;;;8.85;2.05;;;;;;;;;;4883608;29;20544;-77
2023/07/30 08:05:24;;;;;;;;;;;;;;;;;;;;;
2023/07/30 08:12:10;;;;;;;11.82;2.20;;;;;;;;;;4878557;29;20514;-77
2023/07/30 09:09:17;;;;;;;5.40;1.63;;;;;;;;;;4857371;29;21298;-78
2023/07/30 09:15:18;;;;;;;7.82;1.73;;;;;;;;;;4850179;29;20083;-79
2023/07/30 09:28:40;;;;;;;5.15;1.70;;;;;;;;;;4785744;29;20046;-79
2023/07/30 09:31:19;;;;;;;3.78;1.67;;;;;;;;;;4809389;29;20095;-78
2023/07/30 09:34:38;;;;;;;4.03;1.42;;;;;;;;;;4935468;28;20145;-81
2023/07/30 09:41:18;;;;;;;;;;;;;;;;;;;;;
2023/07/30 09:44:24;;;;;;;4.07;1.40;;;;;;;;;;4945682;28;20046;-78
2023/07/30 09:47:31;;;;;;;7.88;2.20;;;;;;;;;;4964274;28;20042;-79
2023/07/30 16:16:42;;;;;;;7.18;2.33;;;;;;;;;;5056190;22;20631;-79
2023/07/30 16:19:30;;;;;;;4.78;2.63;;;;;;;;;;5056196;28;20477;-79
2023/07/30 16:22:44;;;;;;;;;;;;;;;;;;;;;
2023/07/30 16:25:10;;;;;;;;;;;;;;;;;;5057942;28;20045;-79
2023/07/30 16:28:00;;;;;;;8.50;2.88;;;;;;;;;;5026818;28;19916;-79
2023/07/30 16:30:39;;;;;;;7.10;2.60;;;;;;;;;;5058969;28;20027;-78
2023/07/30 16:36:06;;;;;;;7.75;3.05;;;;;;;;;;4966927;28;20046;-79
2023/07/30 16:38:38;;;;;;;9.50;3.42;;;;;;;;;;5053410;28;20063;-79
2023/07/30 16:41:37;;;;;;;;;;;;;;;;;;;;;
2023/07/30 16:44:06;;;;;;;6.80;2.78;;;;;;;;;;5036085;28;21977;-78
2023/07/30 16:46:32;;;;;;;6.03;3.15;;;;;;;;;;5050319;28;20102;-78
2023/07/30 16:48:58;;;;;;;8.68;3.70;;;;;;;;;;5043373;28;20048;-79
2023/07/30 16:51:24;;;;;;;8.95;2.90;;;;;;;;;;5052025;28;20029;-78
2023/07/30 16:53:52;;;;;;;7.78;3.45;;;;;;;;;;5054619;28;20105;-79
2023/07/30 16:56:48;;;;;;;8.25;3.22;;;;;;;;;;5019162;28;20552;-80
2023/07/30 17:02:26;;;;;;;6.70;3.17;;;;;;;;;;5045245;28;20040;-78
2023/07/30 17:05:04;;;;;;;7.70;3.35;;;;;;;;;;5060489;28;20053;-79
2023/07/30 17:07:53;;;;;;;6.68;3.10;;;;;;;;;;5062898;28;20032;-79
2023/07/30 17:10:19;;;;;;;7.63;3.10;;;;;;;;;;5057262;28;20559;-80
2023/07/30 17:12:51;;;;;;;7.57;3.17;;;;;;;;;;5061559;28;20032;-79
2023/07/30 17:15:22;;;;;;;7.25;3.67;;;;;;;;;;5063479;28;20051;-79
2023/07/30 17:17:51;;;;;;;7.90;3.17;;;;;;;;;;5077218;28;20058;-78
2023/07/30 17:20:54;;;;;;;8.93;3.30;;;;;;;;;;5062674;28;20043;-78
2023/07/30 17:23:26;;;;;;;5.00;3.22;;;;;;;;;;5078095;28;20036;-79
2023/07/30 17:26:37;;;;;;;6.55;3.00;;;;;;;;;;5082875;28;20024;-79
2023/07/30 17:29:24;;;;;;;5.05;3.10;;;;;;;;;;5000723;28;20037;-80
2023/07/30 17:32:04;;;;;;;9.38;3.50;;;;;;;;;;4992180;28;20033;-79
2023/07/30 17:34:30;;;;;;;6.10;2.80;;;;;;;;;;5048288;28;20402;-79
2023/07/30 17:36:59;;;;;;;5.93;2.90;;;;;;;;;;5078700;28;20070;-80
2023/07/30 17:39:34;;;;;;;6.90;3.40;;;;;;;;;;5061667;28;20047;-79
2023/07/30 17:42:43;;;;;;;6.68;3.53;;;;;;;;;;5069290;28;20128;-79
2023/07/30 17:45:22;;;;;;;7.95;3.88;;;;;;;;;;5052627;28;20039;-79
2023/07/30 17:47:48;;;;;;;9.82;3.70;;;;;;;;;;5057902;28;20029;-79
2023/07/30 17:50:14;;;;;;;7.80;3.53;;;;;;;;;;5044024;28;20024;-79
2023/07/30 17:52:51;;;;;;;11.82;3.90;;;;;;;;;;5061394;28;20051;-78
2023/07/30 17:55:55;;;;;;;11.88;3.80;;;;;;;;;;5072712;28;20024;-79
2023/07/30 17:58:58;;;;;;;;;;;;;;;;;;;;;
2023/07/30 18:01:35;;;;;;;11.33;3.53;;;;;;;;;;5019749;28;20044;-79
2023/07/30 18:04:24;;;;;;;6.80;3.50;;;;;;;;;;5064444;28;20047;-79
2023/07/30 18:06:50;;;;;;;6.88;3.20;;;;;;;;;;5079246;28;20044;-79
2023/07/30 18:09:21;;;;;;;10.35;3.22;;;;;;;;;;5059040;28;20064;-79
2023/07/30 18:11:53;;;;;;;5.45;3.35;;;;;;;;;;5071017;28;20071;-78
2023/07/30 18:14:20;;;;;;;5.25;3.00;;;;;;;;;;5059304;28;20024;-78
2023/07/30 18:16:48;;;;;;;5.78;3.45;;;;;;;;;;5082249;28;20037;-78
2023/07/30 18:19:25;;;;;;;6.18;2.80;;;;;;;;;;5081286;28;20058;-78
2023/07/30 18:21:53;;;;;;;5.75;2.70;;;;;;;;;;5060401;28;20139;-78
2023/07/30 18:24:19;;;;;;;7.50;3.20;;;;;;;;;;5082680;28;20116;-79
2023/07/30 18:27:24;;;;;;;10.23;2.97;;;;;;;;;;5063765;28;20034;-79
2023/07/30 18:30:02;;;;;;;4.18;2.70;;;;;;;;;;5078158;28;20517;-79
2023/07/30 18:32:32;;;;;;;7.57;3.65;;;;;;;;;;5068066;28;20090;-79
2023/07/30 18:35:07;;;;;;;8.48;3.90;;;;;;;;;;5082901;28;20129;-78
2023/07/30 18:37:32;;;;;;;9.40;3.55;;;;;;;;;;5069046;28;20040;-78
2023/07/30 18:43:47;;;;;;;9.00;2.85;;;;;;;;;;5058708;28;20163;-78
2023/07/30 18:46:51;;;;;;;6.85;2.65;;;;;;;;;;5080628;28;20032;-78
2023/07/30 18:49:38;;;;;;;5.97;2.67;;;;;;;;;;5067164;28;20036;-78
2023/07/30 18:53:22;;;;;;;6.88;3.03;;;;;;;;;;5077967;28;20046;-78
2023/07/30 18:59:44;;;;;;;4.97;2.53;;;;;;;;;;5080127;28;20082;-78
2023/07/30 19:03:36;;;;;;;;;;;;;;;;;;;;;
2023/07/30 19:13:20;;;;;;;7.93;2.63;;;;;;;;;;5021045;28;20056;-78
2023/07/30 19:19:28;;;;;;;7.97;2.60;;;;;;;;;;4949961;28;20053;-78
2023/07/30 19:22:25;;;;;;;5.82;2.58;;;;;;;;;;5030280;28;20071;-78
2023/07/30 19:24:54;;;;;;;5.10;2.50;;;;;;;;;;5062245;28;20604;-79
2023/07/30 19:28:05;;;;;;;10.55;2.75;;;;;;;;;;5046309;28;20040;-78
2023/07/30 19:30:38;;;;;;;5.55;2.25;;;;;;;;;;5006394;28;20040;-79
2023/07/30 19:33:05;;;;;;;5.70;2.67;;;;;;;;;;5045653;28;20055;-78
2023/07/30 19:36:06;;;;;;;6.78;2.50;;;;;;;;;;5063729;28;20032;-79
2023/07/30 19:38:45;;;;;;;;;;;;;;;;;;;;;
2023/07/30 19:41:42;;;;;;;4.75;2.50;;;;;;;;;;5058189;28;20893;-79
2023/07/30 19:44:25;;;;;;;8.18;3.03;;;;;;;;;;5063381;28;20032;-78
2023/07/30 19:47:02;;;;;;;8.73;2.67;;;;;;;;;;5060197;28;20043;-78
2023/07/30 19:49:27;;;;;;;7.05;2.88;;;;;;;;;;5061736;28;20044;-79
2023/07/30 19:54:43;;;;;;;10.77;3.45;;;;;;;;;;5030091;28;20208;-78
2023/07/30 19:57:14;;;;;;;7.53;2.90;;;;;;;;;;5057129;28;20530;-79
2023/07/30 19:59:43;;;;;;;12.23;2.97;;;;;;;;;;5062626;28;20054;-79
2023/07/30 20:02:11;;;;;;;13.48;3.08;;;;;;;;;;5057824;28;20590;-79
2023/07/30 20:05:23;;;;;;;6.75;2.70;;;;;;;;;;5058056;28;20064;-79
2023/07/30 20:08:19;;;;;;;8.00;2.90;;;;;;;;;;5038780;28;20536;-79
2023/07/30 20:10:57;;;;;;;10.55;2.80;;;;;;;;;;5060041;28;20025;-79
2023/07/30 20:13:26;;;;;;;11.13;2.90;;;;;;;;;;5056524;28;20110;-79
2023/07/30 20:15:57;;;;;;;10.75;3.20;;;;;;;;;;5072217;28;20044;-79
2023/07/30 20:19:01;;;;;;;9.05;2.42;;;;;;;;;;5076044;28;20029;-79
2023/07/30 20:21:44;;;;;;;7.87;2.90;;;;;;;;;;5055497;28;20063;-79
2023/07/30 20:25:04;;;;;;;9.45;2.75;;;;;;;;;;5062376;28;20277;-79
2023/07/30 20:27:34;;;;;;;11.82;3.17;;;;;;;;;;5081109;28;20032;-79
2023/07/30 20:33:00;;;;;;;9.45;3.17;;;;;;;;;;5062224;28;20040;-79
2023/07/30 20:35:54;;;;;;;8.98;2.70;;;;;;;;;;5060066;28;20028;-79
2023/07/30 20:38:25;;;;;;;7.95;2.75;;;;;;;;;;5062175;28;20074;-79
2023/07/30 20:41:06;;;;;;;8.35;2.85;;;;;;;;;;5063079;28;20043;-79
2023/07/30 20:43:36;;;;;;;7.88;2.42;;;;;;;;;;5060551;28;20585;-79
2023/07/30 20:46:59;;;;;;;7.80;2.75;;;;;;;;;;5062976;28;20074;-79
2023/07/30 20:49:29;;;;;;;10.50;3.30;;;;;;;;;;5063454;28;20036;-79
2023/07/30 20:52:04;;;;;;;7.72;2.67;;;;;;;;;;5053930;28;20056;-79
2023/07/30 20:54:44;;;;;;;9.15;3.20;;;;;;;;;;5063314;28;20040;-79
2023/07/30 20:57:18;;;;;;;12.75;3.85;;;;;;;;;;5062165;28;20044;-80
2023/07/30 20:59:56;;;;;;;9.38;2.80;;;;;;;;;;5062226;28;20097;-79
2023/07/30 21:02:29;;;;;;;8.70;2.92;;;;;;;;;;5061079;28;20028;-79
2023/07/30 21:05:05;;;;;;;7.65;2.72;;;;;;;;;;5063606;28;20021;-80
2023/07/30 21:08:08;;;;;;;11.02;2.75;;;;;;;;;;5047915;28;20406;-79
2023/07/30 21:10:34;;;;;;;11.10;3.10;;;;;;;;;;5057458;28;20036;-79
2023/07/30 21:13:02;;;;;;;14.23;2.90;;;;;;;;;;5060755;28;20037;-80
2023/07/30 21:15:28;;;;;;;8.73;2.97;;;;;;;;;;5062317;28;20107;-79
2023/07/30 21:19:01;;;;;;;9.45;3.53;;;;;;;;;;5056361;28;20058;-79
2023/07/30 21:22:14;;;;;;;;;;;;;;;;;;;;;
2023/07/30 21:25:28;;;;;;;;;;;;;;;;;;;;;
2023/07/30 21:32:06;;;;;;;6.07;2.85;;;;;;;;;;4986214;28;20282;-79
2023/07/30 21:34:45;;;;;;;9.85;2.85;;;;;;;;;;5068028;28;20584;-80
2023/07/30 21:37:22;;;;;;;12.85;3.60;;;;;;;;;;5055803;28;20041;-80
2023/07/30 21:40:13;;;;;;;10.63;3.30;;;;;;;;;;5047456;28;20048;-78
2023/07/30 21:42:44;;;;;;;8.40;3.00;;;;;;;;;;5066224;28;20054;-79
2023/07/30 21:45:19;;;;;;;6.60;3.22;;;;;;;;;;5071395;28;20047;-79
2023/07/30 21:48:24;;;;;;;8.88;3.10;;;;;;;;;;5053067;28;20035;-79
2023/07/30 21:57:53;;;;;;;10.32;3.92;;;;;;;;;;4980854;28;20443;-78
2023/07/30 22:08:25;;;;;;;12.35;3.08;;;;;;;;;;4922439;29;20067;-78
2023/07/30 22:11:29;;;;;;;10.98;2.80;;;;;;;;;;4887760;29;20040;-78
2023/07/30 22:13:54;;;;;;;9.75;3.08;;;;;;;;;;4895852;28;20042;-78
2023/07/30 22:16:45;;;;;;;13.50;2.90;;;;;;;;;;4983660;28;20053;-78
2023/07/30 22:19:29;;;;;;;6.13;2.92;;;;;;;;;;5007903;28;20164;-79
2023/07/30 22:22:21;;;;;;;8.85;2.92;;;;;;;;;;5056495;28;20032;-78
2023/07/30 22:24:59;;;;;;;8.55;3.60;;;;;;;;;;5039719;28;20040;-78
2023/07/30 22:28:08;;;;;;;10.95;3.15;;;;;;;;;;5054033;28;20024;-78
2023/07/30 22:33:54;;;;;;;8.73;2.85;;;;;;;;;;5018352;28;20095;-78
2023/07/30 22:36:51;;;;;;;7.75;2.97;;;;;;;;;;5021922;28;20042;-78
2023/07/30 22:39:26;;;;;;;10.10;3.10;;;;;;;;;;5061191;28;20028;-78
2023/07/30 22:42:21;;;;;;;11.57;3.20;;;;;;;;;;5055622;28;20041;-79
2023/07/30 22:45:06;;;;;;;;;;;;;;;;;;;;;
2023/07/30 22:47:48;;;;;;;12.75;3.13;;;;;;;;;;5065458;28;20027;-78
2023/07/30 22:50:20;;;;;;;8.57;2.70;;;;;;;;;;5057608;28;20081;-79
2023/07/30 22:56:00;;;;;;;13.70;3.00;;;;;;;;;;5012300;28;20045;-79
2023/07/30 22:58:49;;;;;;;12.85;3.10;;;;;;;;;;5058991;28;20064;-79
2023/07/30 23:01:31;;;;;;;10.13;2.78;;;;;;;;;;5055277;28;20071;-79
2023/07/30 23:07:11;;;;;;;10.30;3.05;;;;;;;;;;5064659;28;20414;-79
2023/07/30 23:10:02;;;;;;;11.10;3.30;;;;;;;;;;5051391;28;20119;-79
2023/07/30 23:12:28;;;;;;;12.93;3.30;;;;;;;;;;5047853;28;20037;-79
2023/07/30 23:15:24;;;;;;;8.60;3.35;;;;;;;;;;5032998;28;20043;-79
2023/07/30 23:30:55;;;;;;;10.68;3.38;;;;;;;;;;5015899;28;20041;-79
2023/07/30 23:33:40;;;;;;;9.73;3.40;;;;;;;;;;5043197;28;20037;-79
2023/07/30 23:50:21;;;;;;;;;;;;;;;;;;;;;
2023/07/30 23:53:31;;;;;;;11.20;3.42;;;;;;;;;;4989067;28;21045;-79
2023/07/30 23:56:01;;;;;;;9.73;3.47;;;;;;;;;;4995456;28;20045;-79
